Time;durP1;ratioP1;P1;durP2;ratioP2;P2;SDS_P1;SDS_P2;PMS_P1;PMS_P2;Temp;Humidity;BMP_temperature;BMP_pressure;BME280_temperature;BME280_humidity;BME280_pressure;Samples;Min_cycle;Max_cycle;Signal;HPM_P1;HPM_P2
2023/01/17 00:02:17;;;;;;;3.13;2.30;;;5.70;99.90;;;;;;5017886;28;93219;-73
2023/01/17 00:10:21;;;;;;;1.25;1.15;;;5.70;99.90;;;;;;5034639;28;93068;-73
2023/01/17 00:12:51;;;;;;;3.05;1.40;;;5.70;99.90;;;;;;5035814;28;92535;-73
2023/01/17 00:15:22;;;;;;;1.27;1.00;;;5.70;99.90;;;;;;5035797;28;92838;-73
2023/01/17 00:17:50;;;;;;;4.57;1.33;;;5.70;99.90;;;;;;5035119;28;93048;-73
2023/01/17 00:26:15;;;;;;;0.95;0.80;;;5.70;99.90;;;;;;5033873;28;95780;-73
2023/01/17 01:35:59;;;;;;;3.17;0.68;;;4.80;99.90;;;;;;5037910;28;92340;-73
2023/01/17 01:38:27;;;;;;;3.58;0.55;;;4.80;99.90;;;;;;5036258;28;93021;-74
2023/01/17 01:40:55;;;;;;;1.95;0.50;;;4.80;99.90;;;;;;5036246;28;93609;-73
2023/01/17 01:43:41;;;;;;;3.20;0.60;;;4.80;99.90;;;;;;5036764;28;95553;-73
2023/01/17 01:46:31;;;;;;;4.88;0.98;;;4.90;99.90;;;;;;5036449;28;92453;-73
2023/01/17 01:49:14;;;;;;;1.10;0.40;;;4.90;99.90;;;;;;5037439;27;92444;-73
2023/01/17 01:51:44;;;;;;;6.35;0.80;;;4.90;99.90;;;;;;5036361;28;95684;-73
2023/01/17 01:54:16;;;;;;;3.22;0.70;;;5.00;99.90;;;;;;5036030;28;97944;-74
2023/01/17 01:56:45;;;;;;;1.05;0.60;;;5.00;99.90;;;;;;5036769;28;92502;-73
2023/01/17 01:59:14;;;;;;;2.40;0.47;;;5.00;99.90;;;;;;5037437;28;93347;-73
2023/01/17 02:01:41;;;;;;;9.05;1.05;;;5.00;99.90;;;;;;5019365;28;96586;-73
2023/01/17 02:04:09;;;;;;;2.08;0.75;;;5.10;99.90;;;;;;5035951;28;93040;-73
2023/01/17 02:06:42;;;;;;;3.17;0.70;;;5.00;99.90;;;;;;5036024;28;96686;-74
2023/01/17 02:09:12;;;;;;;2.92;0.50;;;5.00;99.90;;;;;;5037994;28;91855;-72
2023/01/17 02:11:40;;;;;;;3.17;1.10;;;5.00;99.90;;;;;;5037370;28;93273;-73
2023/01/17 02:14:13;;;;;;;1.73;0.40;;;5.00;99.90;;;;;;5035840;28;93304;-73
2023/01/17 02:16:52;;;;;;;1.73;0.40;;;4.90;99.90;;;;;;5019211;28;94832;-72
2023/01/17 02:19:41;;;;;;;2.42;0.52;;;4.90;99.90;;;;;;5018950;28;92535;-73
2023/01/17 02:22:36;;;;;;;3.45;0.60;;;4.80;99.90;;;;;;5035679;28;95910;-73
2023/01/17 02:25:06;;;;;;;5.25;0.77;;;4.70;99.90;;;;;;5037125;28;93300;-72
2023/01/17 02:27:52;;;;;;;2.22;0.50;;;4.70;99.90;;;;;;5036116;28;92473;-73
2023/01/17 02:30:34;;;;;;;2.42;0.70;;;4.70;99.90;;;;;;5036275;27;92522;-73
2023/01/17 02:33:16;;;;;;;1.80;0.60;;;4.70;99.90;;;;;;5036589;27;93569;-73
2023/01/17 02:36:20;;;;;;;2.28;0.95;;;4.70;99.90;;;;;;5036005;28;95489;-73
2023/01/17 02:38:57;;;;;;;2.72;0.63;;;4.70;99.90;;;;;;5022948;28;96132;-73
2023/01/17 02:41:32;;;;;;;2.78;0.52;;;4.60;99.90;;;;;;5019381;28;92457;-73
2023/01/17 02:44:01;;;;;;;2.72;0.47;;;4.60;99.90;;;;;;5034192;28;94834;-74
2023/01/17 02:46:29;;;;;;;1.23;0.57;;;4.60;99.90;;;;;;5036688;28;95382;-73
2023/01/17 02:48:57;;;;;;;3.72;0.95;;;4.60;99.90;;;;;;5035439;28;92555;-73
2023/01/17 02:51:45;;;;;;;1.65;0.55;;;4.60;99.90;;;;;;5035595;28;92525;-73
2023/01/17 02:54:41;;;;;;;4.18;0.90;;;4.60;99.90;;;;;;5034758;28;95683;-73
2023/01/17 02:57:26;;;;;;;1.77;0.65;;;4.60;99.90;;;;;;5034940;28;95245;-73
2023/01/17 03:00:17;;;;;;;5.07;0.80;;;4.50;99.90;;;;;;5037042;28;92429;-74
2023/01/17 03:02:59;;;;;;;4.40;0.90;;;4.60;99.90;;;;;;5037326;28;91612;-73
2023/01/17 03:05:26;;;;;;;5.90;0.80;;;4.60;99.90;;;;;;5036759;28;93340;-74
2023/01/17 03:07:53;;;;;;;1.50;0.63;;;4.50;99.90;;;;;;5035175;28;95507;-74
2023/01/17 03:10:21;;;;;;;6.85;0.88;;;4.60;99.90;;;;;;5017248;28;94909;-74
2023/01/17 03:12:49;;;;;;;4.10;0.90;;;4.60;99.90;;;;;;4985336;28;92518;-72
2023/01/17 03:15:16;;;;;;;3.95;0.98;;;4.60;99.90;;;;;;5036217;27;93439;-72
2023/01/17 03:17:49;;;;;;;4.35;0.70;;;4.60;99.90;;;;;;5034796;28;101082;-72
2023/01/17 03:20:16;;;;;;;5.80;1.00;;;4.60;99.90;;;;;;5036908;28;92916;-72
2023/01/17 03:22:43;;;;;;;7.95;1.30;;;4.70;99.90;;;;;;5035213;28;93565;-72
2023/01/17 03:25:10;;;;;;;3.17;0.73;;;4.70;99.90;;;;;;5034873;28;93157;-74
2023/01/17 03:27:37;;;;;;;2.53;0.95;;;4.80;99.90;;;;;;5036263;28;93191;-72
2023/01/17 03:30:05;;;;;;;2.30;0.60;;;4.80;99.90;;;;;;5035287;28;92611;-72
2023/01/17 03:32:32;;;;;;;4.68;0.88;;;4.80;99.90;;;;;;5000723;28;92591;-72
2023/01/17 03:34:59;;;;;;;2.60;0.65;;;4.80;99.90;;;;;;5034856;28;95674;-72
2023/01/17 03:37:25;;;;;;;5.35;0.90;;;4.80;99.90;;;;;;5034300;28;98340;-72
2023/01/17 03:39:52;;;;;;;3.33;0.70;;;4.90;99.90;;;;;;5018036;27;93246;-74
2023/01/17 03:42:19;;;;;;;4.80;1.00;;;4.80;99.90;;;;;;5017667;28;92595;-73
2023/01/17 03:44:46;;;;;;;4.32;0.77;;;4.80;99.90;;;;;;5035905;28;93382;-72
2023/01/17 03:47:13;;;;;;;1.95;0.52;;;4.80;99.90;;;;;;5034723;28;93047;-73
2023/01/17 03:49:40;;;;;;;3.55;0.82;;;4.80;99.90;;;;;;5034986;28;92936;-73
2023/01/17 03:52:07;;;;;;;5.00;0.95;;;4.80;99.90;;;;;;5035125;28;92263;-73
2023/01/17 03:54:34;;;;;;;5.40;1.00;;;4.80;99.90;;;;;;5034249;28;95510;-74
2023/01/17 03:57:01;;;;;;;3.95;0.90;;;4.80;99.90;;;;;;5017779;28;93324;-72
2023/01/17 03:59:28;;;;;;;5.07;0.93;;;4.80;99.90;;;;;;5016809;28;95336;-74
2023/01/17 04:01:55;;;;;;;5.55;0.90;;;4.80;99.90;;;;;;5017831;28;92541;-72
2023/01/17 04:04:22;;;;;;;2.53;0.77;;;4.80;99.90;;;;;;5034224;28;93574;-72
2023/01/17 04:06:49;;;;;;;4.65;0.90;;;4.80;99.90;;;;;;5000851;28;95693;-72
2023/01/17 04:09:16;;;;;;;2.05;1.48;;;4.80;99.90;;;;;;5035482;28;92454;-72
2023/01/17 04:11:43;;;;;;;4.68;0.80;;;4.80;99.90;;;;;;5034533;28;92447;-72
2023/01/17 04:14:10;;;;;;;4.45;0.75;;;4.80;99.90;;;;;;5034402;28;92535;-72
2023/01/17 04:16:37;;;;;;;3.30;0.70;;;4.80;99.90;;;;;;5035563;28;94738;-72
2023/01/17 04:19:04;;;;;;;1.75;0.80;;;4.70;99.90;;;;;;5034450;28;92436;-72
2023/01/17 04:21:31;;;;;;;2.80;1.00;;;4.70;99.90;;;;;;5033396;28;93670;-72
2023/01/17 04:23:58;;;;;;;2.88;0.60;;;4.60;99.90;;;;;;5016395;28;95056;-72
2023/01/17 04:26:25;;;;;;;3.92;0.80;;;4.60;99.90;;;;;;5035112;27;95379;-73
2023/01/17 04:28:52;;;;;;;4.18;0.90;;;4.50;99.90;;;;;;5033828;28;97960;-73
2023/01/17 04:31:19;;;;;;;4.97;0.85;;;4.40;99.90;;;;;;5035401;28;92450;-73
2023/01/17 04:33:46;;;;;;;6.97;0.90;;;4.40;99.90;;;;;;5035063;28;93239;-73
2023/01/17 04:36:13;;;;;;;4.07;0.73;;;4.30;99.90;;;;;;5035089;28;93094;-73
2023/01/17 04:38:40;;;;;;;3.60;0.60;;;4.20;99.90;;;;;;5034174;28;92610;-73
2023/01/17 04:41:07;;;;;;;6.05;0.82;;;4.20;99.90;;;;;;5035872;28;92339;-73
2023/01/17 04:43:34;;;;;;;5.20;0.82;;;4.10;99.90;;;;;;5035008;28;93174;-73
2023/01/17 04:46:03;;;;;;;6.72;0.90;;;4.00;99.90;;;;;;5035096;28;92954;-73
2023/01/17 04:48:30;;;;;;;4.93;1.05;;;4.00;99.90;;;;;;5032405;28;95480;-73
2023/01/17 04:51:01;;;;;;;4.72;0.88;;;3.90;99.90;;;;;;5035068;28;92431;-73
2023/01/17 04:53:28;;;;;;;2.72;0.70;;;3.80;99.90;;;;;;5037660;27;93268;-73
2023/01/17 04:55:56;;;;;;;3.42;0.90;;;3.80;99.90;;;;;;5037293;28;96833;-73
2023/01/17 04:58:23;;;;;;;1.65;1.00;;;3.70;99.90;;;;;;5037415;28;92482;-73
2023/01/17 05:00:50;;;;;;;4.78;0.90;;;3.70;99.90;;;;;;5037446;28;92577;-73
2023/01/17 05:03:21;;;;;;;2.65;0.90;;;3.60;99.90;;;;;;5020190;28;95727;-73
2023/01/17 05:05:48;;;;;;;3.53;1.30;;;3.50;99.90;;;;;;5020791;28;95549;-73
2023/01/17 05:08:15;;;;;;;2.22;0.52;;;3.50;99.90;;;;;;5037163;28;92538;-73
2023/01/17 05:10:45;;;;;;;7.78;1.30;;;3.50;99.90;;;;;;5020444;28;92555;-73
2023/01/17 05:13:13;;;;;;;3.72;0.80;;;3.40;99.90;;;;;;5037080;28;95491;-73
2023/01/17 05:15:40;;;;;;;5.25;1.20;;;3.30;99.90;;;;;;5036510;28;95395;-73
2023/01/17 05:18:14;;;;;;;8.23;1.30;;;3.30;99.90;;;;;;5036956;28;92582;-72
2023/01/17 05:20:41;;;;;;;7.13;0.85;;;3.30;99.90;;;;;;5038233;28;92432;-73
2023/01/17 05:23:09;;;;;;;3.08;0.73;;;3.30;99.90;;;;;;5036862;28;93370;-72
2023/01/17 05:25:36;;;;;;;4.10;0.70;;;3.20;99.90;;;;;;5036559;28;95455;-73
2023/01/17 05:28:03;;;;;;;2.38;0.70;;;3.20;99.90;;;;;;5020160;28;92497;-73
2023/01/17 05:30:31;;;;;;;3.78;0.80;;;3.10;99.90;;;;;;5037944;28;93605;-73
2023/01/17 05:32:58;;;;;;;5.95;0.93;;;3.10;99.90;;;;;;5037483;28;93174;-72
2023/01/17 05:35:28;;;;;;;6.63;0.80;;;3.00;99.90;;;;;;5037810;28;92434;-73
2023/01/17 05:37:55;;;;;;;5.80;0.95;;;3.00;99.90;;;;;;5035472;28;94882;-72
2023/01/17 05:40:25;;;;;;;4.07;0.90;;;2.90;99.90;;;;;;5037882;28;92353;-72
2023/01/17 05:42:54;;;;;;;5.15;0.73;;;2.90;99.90;;;;;;5019535;28;96443;-73
2023/01/17 05:45:23;;;;;;;4.40;0.80;;;2.80;99.90;;;;;;5038139;28;93178;-73
2023/01/17 05:47:52;;;;;;;4.68;1.33;;;2.80;99.90;;;;;;5036489;28;92443;-73
2023/01/17 05:50:22;;;;;;;6.50;0.90;;;2.70;99.90;;;;;;5036640;28;92516;-73
2023/01/17 05:52:54;;;;;;;7.13;0.80;;;2.70;99.90;;;;;;5037962;28;93387;-72
2023/01/17 05:55:22;;;;;;;3.22;0.80;;;2.60;99.90;;;;;;5036435;28;95524;-72
2023/01/17 05:57:49;;;;;;;5.00;0.90;;;2.60;99.90;;;;;;5036256;28;92520;-72
2023/01/17 06:00:17;;;;;;;6.90;0.93;;;2.60;99.90;;;;;;5036671;28;92922;-72
2023/01/17 06:02:44;;;;;;;5.38;0.77;;;2.60;99.90;;;;;;5018113;28;95715;-72
2023/01/17 06:05:13;;;;;;;1.75;0.60;;;2.50;99.90;;;;;;5036235;28;95358;-72
2023/01/17 06:07:42;;;;;;;4.20;0.50;;;2.50;99.90;;;;;;5037368;28;92315;-72
2023/01/17 06:10:10;;;;;;;3.83;1.60;;;2.50;99.90;;;;;;5037683;28;93002;-72
2023/01/17 06:12:37;;;;;;;2.13;0.63;;;2.50;99.90;;;;;;5019139;28;95797;-72
2023/01/17 06:15:04;;;;;;;4.22;0.73;;;2.50;99.90;;;;;;5037618;28;93032;-72
2023/01/17 06:17:31;;;;;;;1.83;1.10;;;2.40;99.90;;;;;;5037362;28;92332;-72
2023/01/17 06:19:58;;;;;;;3.45;0.90;;;2.40;99.90;;;;;;5036551;28;91814;-72
2023/01/17 06:22:25;;;;;;;1.83;0.63;;;2.40;99.90;;;;;;5018859;28;95775;-72
2023/01/17 06:24:53;;;;;;;2.65;0.70;;;2.30;99.90;;;;;;5037064;28;93039;-72
2023/01/17 06:27:20;;;;;;;0.93;0.43;;;2.30;99.90;;;;;;5034903;28;95374;-73
2023/01/17 06:29:47;;;;;;;4.28;0.70;;;2.30;99.90;;;;;;5037049;28;92533;-73
2023/01/17 06:32:15;;;;;;;3.55;0.98;;;2.20;99.90;;;;;;5035590;28;98930;-73
2023/01/17 06:34:42;;;;;;;4.90;0.73;;;2.20;99.90;;;;;;5001953;28;95564;-73
2023/01/17 06:37:09;;;;;;;1.63;0.88;;;2.20;99.90;;;;;;5035683;28;92454;-73
2023/01/17 06:39:36;;;;;;;4.07;0.77;;;2.20;99.90;;;;;;5036866;28;92478;-73
2023/01/17 06:42:03;;;;;;;4.70;0.80;;;2.10;99.90;;;;;;5035633;28;93150;-74
2023/01/17 06:44:30;;;;;;;3.85;1.00;;;2.10;99.90;;;;;;5036050;28;92959;-74
2023/01/17 06:46:57;;;;;;;3.30;0.70;;;2.10;99.90;;;;;;5036926;28;92402;-73
2023/01/17 06:49:24;;;;;;;2.90;0.90;;;2.10;99.90;;;;;;5018727;28;92521;-74
2023/01/17 06:51:51;;;;;;;2.95;0.93;;;2.10;99.90;;;;;;5035540;28;95664;-73
2023/01/17 06:54:18;;;;;;;3.08;0.65;;;2.10;99.90;;;;;;5018505;28;98165;-74
2023/01/17 06:56:45;;;;;;;2.72;1.52;;;2.00;99.90;;;;;;5035103;28;92511;-73
2023/01/17 06:59:12;;;;;;;6.97;0.70;;;2.00;99.90;;;;;;5035180;28;95156;-74
2023/01/17 07:01:40;;;;;;;2.80;0.73;;;2.00;99.90;;;;;;5036489;28;93536;-74
2023/01/17 07:04:07;;;;;;;7.18;0.85;;;2.00;99.90;;;;;;5036416;28;92808;-74
2023/01/17 07:06:35;;;;;;;2.42;0.73;;;1.90;99.90;;;;;;5035350;28;92540;-74
2023/01/17 07:09:03;;;;;;;3.60;0.73;;;2.00;99.90;;;;;;5035711;28;91806;-74
2023/01/17 07:11:30;;;;;;;4.03;1.17;;;1.90;99.90;;;;;;5034926;28;95692;-74
2023/01/17 07:13:57;;;;;;;2.70;0.60;;;1.90;99.90;;;;;;5036186;28;93078;-74
2023/01/17 07:16:24;;;;;;;2.95;0.52;;;1.90;99.90;;;;;;5016606;28;94956;-74
2023/01/17 07:18:53;;;;;;;2.03;0.90;;;1.90;99.90;;;;;;5036433;27;93084;-74
2023/01/17 07:21:20;;;;;;;2.58;1.13;;;1.90;99.90;;;;;;5036043;28;93226;-74
2023/01/17 07:23:47;;;;;;;5.95;0.77;;;1.90;99.90;;;;;;5018470;28;94152;-74
2023/01/17 07:26:16;;;;;;;3.45;0.80;;;1.90;99.90;;;;;;5035280;28;92602;-74
2023/01/17 07:28:43;;;;;;;2.13;0.70;;;1.90;99.90;;;;;;5036181;28;92429;-74
2023/01/17 07:31:10;;;;;;;3.45;0.90;;;1.90;99.90;;;;;;5034595;28;95943;-73
2023/01/17 07:33:37;;;;;;;6.15;1.05;;;1.90;99.90;;;;;;5035147;27;92966;-73
2023/01/17 07:36:06;;;;;;;2.60;0.80;;;1.90;99.90;;;;;;5036338;27;92453;-73
2023/01/17 07:38:33;;;;;;;4.25;0.95;;;1.90;99.90;;;;;;5036225;28;92438;-74
2023/01/17 07:41:00;;;;;;;3.67;0.90;;;1.90;99.90;;;;;;5033369;28;95876;-73
2023/01/17 07:43:29;;;;;;;2.00;1.05;;;2.00;99.90;;;;;;5017953;28;95543;-74
2023/01/17 07:45:57;;;;;;;3.03;0.88;;;2.00;99.90;;;;;;5001569;28;92611;-73
2023/01/17 07:48:27;;;;;;;2.90;0.88;;;2.00;99.90;;;;;;5036255;28;92364;-74
2023/01/17 07:50:55;;;;;;;6.35;2.13;;;2.00;99.90;;;;;;5034142;28;94787;-74
2023/01/17 07:53:24;;;;;;;3.20;1.30;;;2.00;99.90;;;;;;5034377;28;95471;-73
2023/01/17 07:55:51;;;;;;;4.30;1.02;;;2.10;99.90;;;;;;5017796;28;92500;-73
2023/01/17 07:58:18;;;;;;;3.38;0.85;;;2.20;99.90;;;;;;5035107;28;92398;-74
2023/01/17 08:00:45;;;;;;;6.90;1.50;;;2.20;99.90;;;;;;5035511;28;92526;-74
2023/01/17 08:03:15;;;;;;;4.70;0.80;;;2.30;99.90;;;;;;5018000;28;93640;-74
2023/01/17 08:05:51;;;;;;;4.65;0.80;;;2.30;99.90;;;;;;5034492;28;94819;-73
2023/01/17 08:08:18;;;;;;;6.40;0.98;;;2.30;99.90;;;;;;5034276;28;92878;-73
2023/01/17 08:10:45;;;;;;;4.15;0.90;;;2.30;99.90;;;;;;5033857;28;93160;-73
2023/01/17 08:13:12;;;;;;;8.60;1.33;;;2.40;99.90;;;;;;5018067;28;93574;-73
2023/01/17 08:15:40;;;;;;;6.95;1.10;;;2.40;99.90;;;;;;5036024;28;93392;-75
2023/01/17 08:18:07;;;;;;;3.58;0.90;;;2.40;99.90;;;;;;5033836;28;92563;-74
2023/01/17 08:20:34;;;;;;;5.05;0.80;;;2.40;99.90;;;;;;5035547;28;93301;-73
2023/01/17 08:23:01;;;;;;;2.75;1.35;;;2.50;99.90;;;;;;5035459;28;98476;-73
2023/01/17 08:25:28;;;;;;;4.63;1.10;;;2.50;99.90;;;;;;5034335;28;92507;-74
2023/01/17 08:27:56;;;;;;;3.63;0.90;;;2.50;99.90;;;;;;5036013;27;93369;-74
2023/01/17 08:30:24;;;;;;;5.07;1.20;;;2.50;99.90;;;;;;5037772;27;95756;-74
2023/01/17 08:32:52;;;;;;;3.85;0.73;;;2.60;99.90;;;;;;5036963;28;95443;-73
2023/01/17 08:35:19;;;;;;;2.92;0.80;;;2.60;99.90;;;;;;5037947;28;92389;-73
2023/01/17 08:37:47;;;;;;;1.75;0.95;;;2.60;99.90;;;;;;5037693;28;92415;-73
2023/01/17 08:40:17;;;;;;;2.10;1.00;;;2.60;99.90;;;;;;5037691;28;93615;-73
2023/01/17 08:42:51;;;;;;;6.07;0.90;;;2.60;99.90;;;;;;5037445;28;92379;-73
2023/01/17 08:45:18;;;;;;;2.05;1.10;;;2.60;99.90;;;;;;5037527;28;92502;-73
2023/01/17 08:47:45;;;;;;;2.80;1.00;;;2.70;99.90;;;;;;5039303;28;91722;-73
2023/01/17 08:50:12;;;;;;;8.20;1.10;;;2.70;99.90;;;;;;5038234;28;93589;-74
2023/01/17 08:52:39;;;;;;;5.65;1.60;;;2.80;99.90;;;;;;5038590;28;93012;-73
2023/01/17 08:55:09;;;;;;;1.77;0.95;;;2.80;99.90;;;;;;5036191;28;94909;-73
2023/01/17 08:57:36;;;;;;;5.85;0.98;;;2.80;99.90;;;;;;5037318;28;92447;-73
2023/01/17 09:00:04;;;;;;;3.25;1.00;;;2.90;99.90;;;;;;5037130;28;93296;-73
2023/01/17 09:02:31;;;;;;;6.45;1.00;;;2.90;99.90;;;;;;5038503;28;93032;-73
2023/01/17 09:04:59;;;;;;;4.03;1.15;;;3.00;99.90;;;;;;5036813;28;92529;-73
2023/01/17 09:07:27;;;;;;;5.07;1.33;;;3.00;99.90;;;;;;5038567;28;92330;-73
2023/01/17 09:09:54;;;;;;;2.80;1.48;;;3.10;99.90;;;;;;5036866;28;93255;-73
2023/01/17 09:12:21;;;;;;;2.80;0.90;;;3.10;99.90;;;;;;5038722;28;92889;-73
2023/01/17 09:14:48;;;;;;;3.95;1.02;;;3.10;99.90;;;;;;5037432;28;92538;-73
2023/01/17 09:17:15;;;;;;;3.80;1.00;;;3.20;99.90;;;;;;5036794;28;92370;-73
2023/01/17 09:19:44;;;;;;;2.33;0.80;;;3.20;99.90;;;;;;5018967;28;95736;-73
2023/01/17 09:22:13;;;;;;;3.55;1.40;;;3.30;99.90;;;;;;5037995;28;95292;-73
2023/01/17 09:24:41;;;;;;;2.47;0.98;;;3.30;99.90;;;;;;5038289;28;92681;-73
2023/01/17 09:27:08;;;;;;;3.83;0.90;;;3.40;99.90;;;;;;5038019;28;92471;-73
2023/01/17 09:29:35;;;;;;;4.60;0.88;;;3.40;99.90;;;;;;5038020;28;92488;-73
2023/01/17 09:32:02;;;;;;;3.55;0.90;;;3.40;99.90;;;;;;5037402;28;92567;-74
2023/01/17 09:34:29;;;;;;;2.88;1.10;;;3.50;99.90;;;;;;5036391;28;92410;-74
2023/01/17 09:36:57;;;;;;;2.55;0.88;;;3.50;99.90;;;;;;5038556;28;91734;-74
2023/01/17 09:39:24;;;;;;;2.63;1.20;;;3.60;99.90;;;;;;5036340;27;93511;-75
2023/01/17 09:41:57;;;;;;;4.25;1.10;;;3.70;99.90;;;;;;5037737;28;93063;-74
2023/01/17 09:44:40;;;;;;;3.08;1.02;;;3.70;99.90;;;;;;5035662;28;95022;-75
2023/01/17 09:47:24;;;;;;;1.83;0.65;;;3.80;99.90;;;;;;5037859;28;92465;-74
2023/01/17 09:49:51;;;;;;;;;;;3.80;99.90;;;;;;5038196;28;93235;-74
2023/01/17 09:52:22;;;;;;;2.83;0.80;;;3.80;99.90;;;;;;5037669;28;92598;-74
2023/01/17 09:54:50;;;;;;;2.95;0.82;;;3.80;99.90;;;;;;5038179;28;92785;-74
2023/01/17 09:57:56;;;;;;;2.22;1.13;;;3.90;99.90;;;;;;5002714;28;92499;-75
2023/01/17 10:00:32;;;;;;;3.58;0.80;;;4.00;99.90;;;;;;5036136;28;93286;-75
2023/01/17 10:03:24;;;;;;;3.35;1.10;;;4.00;99.90;;;;;;5037893;28;92930;-75
2023/01/17 10:06:00;;;;;;;1.70;1.42;;;4.10;99.90;;;;;;5036261;28;92438;-75
2023/01/17 10:08:36;;;;;;;4.88;1.48;;;4.20;99.90;;;;;;5036443;28;92335;-75
2023/01/17 10:11:11;;;;;;;3.80;1.02;;;4.20;99.90;;;;;;5034694;28;95585;-75
2023/01/17 10:14:18;;;;;;;1.38;1.00;;;4.30;99.90;;;;;;5037257;28;95319;-75
2023/01/17 10:17:16;;;;;;;3.80;1.33;;;4.40;99.90;;;;;;5037521;28;92510;-75
2023/01/17 10:19:58;;;;;;;4.13;1.23;;;4.40;99.90;;;;;;5036340;28;92540;-75
2023/01/17 10:22:48;;;;;;;4.22;1.40;;;4.50;99.90;;;;;;5035769;28;92677;-75
2023/01/17 10:25:25;;;;;;;2.20;1.30;;;4.50;99.90;;;;;;5035657;28;95555;-75
2023/01/17 10:28:03;;;;;;;4.22;1.60;;;4.60;99.90;;;;;;5037523;27;92971;-75
2023/01/17 10:30:42;;;;;;;2.58;1.15;;;4.60;99.90;;;;;;5036188;28;91814;-75
2023/01/17 10:33:16;;;;;;;3.50;1.25;;;4.70;99.90;;;;;;5036538;28;93524;-74
2023/01/17 10:35:52;;;;;;;7.65;2.13;;;4.80;99.90;;;;;;5018850;28;95394;-75
2023/01/17 10:38:47;;;;;;;2.63;1.20;;;4.90;99.90;;;;;;5017693;28;94893;-75
2023/01/17 10:41:38;;;;;;;3.33;1.27;;;4.90;99.90;;;;;;5031940;28;92983;-75
2023/01/17 10:44:24;;;;;;;3.95;1.27;;;5.10;99.90;;;;;;5037280;28;92915;-75
2023/01/17 10:47:16;;;;;;;6.65;1.55;;;5.20;99.90;;;;;;5036636;28;93547;-75
2023/01/17 10:49:47;;;;;;;3.10;1.35;;;5.20;99.90;;;;;;5034925;28;92457;-75
2023/01/17 10:52:56;;;;;;;4.93;1.38;;;5.30;99.90;;;;;;5035311;28;92541;-75
2023/01/17 10:55:46;;;;;;;2.20;1.13;;;5.40;99.90;;;;;;5036544;28;93397;-75
2023/01/17 10:58:13;;;;;;;4.05;1.30;;;5.40;99.90;;;;;;5036901;28;92944;-75
2023/01/17 11:00:58;;;;;;;4.18;1.23;;;5.40;99.90;;;;;;5035670;28;92361;-75
2023/01/17 11:03:27;;;;;;;3.38;1.33;;;5.50;99.90;;;;;;5035207;28;92506;-75
2023/01/17 11:06:33;;;;;;;4.45;1.33;;;5.50;99.90;;;;;;5033970;28;95445;-75
2023/01/17 11:09:05;;;;;;;3.25;1.10;;;5.50;99.90;;;;;;4957329;28;97961;-75
2023/01/17 11:11:35;;;;;;;3.15;1.10;;;5.50;99.90;;;;;;4941468;28;92625;-75
2023/01/17 11:14:15;;;;;;;1.80;1.17;;;5.50;99.90;;;;;;4997327;28;92635;-75
2023/01/17 11:16:42;;;;;;;5.65;1.13;;;5.60;99.90;;;;;;5036416;28;93322;-75
2023/01/17 11:19:15;;;;;;;5.18;1.55;;;5.60;99.90;;;;;;5034868;28;95826;-75
2023/01/17 11:21:52;;;;;;;2.70;1.45;;;5.60;99.90;;;;;;5036708;28;92346;-75
2023/01/17 11:24:28;;;;;;;2.70;1.23;;;5.70;99.90;;;;;;5034933;28;91744;-75
2023/01/17 11:26:56;;;;;;;3.53;1.20;;;5.70;99.90;;;;;;5017797;28;95843;-75
2023/01/17 11:29:31;;;;;;;1.33;0.95;;;5.70;99.90;;;;;;5034637;28;92944;-75
2023/01/17 11:32:29;;;;;;;3.30;1.13;;;5.70;99.90;;;;;;5033541;28;94949;-75
2023/01/17 11:35:11;;;;;;;1.27;1.10;;;5.80;99.90;;;;;;5036373;28;92934;-75
2023/01/17 11:38:01;;;;;;;7.10;1.33;;;5.80;99.90;;;;;;5035067;28;93278;-75
2023/01/17 11:40:35;;;;;;;3.67;1.13;;;5.80;99.90;;;;;;5034724;28;92991;-75
2023/01/17 11:43:11;;;;;;;4.28;1.00;;;5.80;99.90;;;;;;5036391;28;92375;-75
2023/01/17 11:45:39;;;;;;;4.43;1.42;;;5.90;99.90;;;;;;5017657;28;92490;-75
2023/01/17 11:48:12;;;;;;;3.38;1.30;;;5.90;99.90;;;;;;5034490;28;94786;-75
2023/01/17 11:50:59;;;;;;;3.77;1.40;;;5.90;99.90;;;;;;5036163;27;92998;-75
2023/01/17 11:53:36;;;;;;;4.55;1.10;;;6.00;99.90;;;;;;5017976;28;92626;-74
2023/01/17 11:56:27;;;;;;;1.83;0.90;;;6.00;99.90;;;;;;5034952;28;93121;-75
2023/01/17 11:59:33;;;;;;;2.28;1.15;;;6.00;99.90;;;;;;5034557;28;95584;-74
2023/01/17 12:02:18;;;;;;;3.25;1.10;;;6.10;99.90;;;;;;4997346;28;97927;-74
2023/01/17 12:05:14;;;;;;;3.88;1.10;;;6.00;99.90;;;;;;5017924;28;92596;-75
2023/01/17 12:07:52;;;;;;;2.10;0.85;;;6.00;99.90;;;;;;5035639;28;92567;-75
2023/01/17 12:10:29;;;;;;;3.17;1.23;;;6.00;99.90;;;;;;5033958;28;96212;-75
2023/01/17 12:16:32;;;;;;;5.32;1.30;;;6.00;99.90;;;;;;5035855;27;92463;-75
2023/01/17 12:19:23;;;;;;;4.30;1.15;;;6.10;99.90;;;;;;5034663;28;91676;-75
2023/01/17 12:22:04;;;;;;;3.72;1.52;;;6.10;99.90;;;;;;5035497;28;93276;-74
2023/01/17 12:24:53;;;;;;;4.13;1.35;;;6.10;99.90;;;;;;5035214;28;93068;-74
2023/01/17 12:27:48;;;;;;;4.45;1.70;;;6.20;99.90;;;;;;5033111;28;94917;-74
2023/01/17 12:30:29;;;;;;;2.22;1.30;;;6.30;99.90;;;;;;5017355;28;92472;-75
2023/01/17 12:33:27;;;;;;;5.68;1.50;;;6.30;99.90;;;;;;5033870;28;93273;-74
2023/01/17 12:36:16;;;;;;;5.63;1.48;;;6.40;99.90;;;;;;5016952;28;95831;-74
2023/01/17 12:38:46;;;;;;;6.30;1.30;;;6.40;99.90;;;;;;5017104;28;92403;-74
2023/01/17 12:41:25;;;;;;;3.85;1.52;;;6.40;99.90;;;;;;5035425;28;92441;-74
2023/01/17 12:43:59;;;;;;;3.55;1.20;;;6.50;99.90;;;;;;5033753;28;95836;-74
2023/01/17 12:46:52;;;;;;;2.38;1.00;;;6.50;99.90;;;;;;5017302;28;95680;-74
2023/01/17 12:49:48;;;;;;;6.80;1.30;;;6.60;99.90;;;;;;5013636;28;92574;-74
2023/01/17 12:52:41;;;;;;;4.07;1.65;;;6.70;99.90;;;;;;5033760;28;92478;-75
2023/01/17 12:55:18;;;;;;;4.78;1.20;;;6.70;99.90;;;;;;5032714;28;95721;-74
2023/01/17 12:57:53;;;;;;;5.22;1.33;;;6.90;99.90;;;;;;5034734;28;95482;-75
2023/01/17 13:00:24;;;;;;;5.53;1.42;;;6.90;99.90;;;;;;5033708;28;92463;-75
2023/01/17 13:03:10;;;;;;;5.63;1.30;;;7.00;99.90;;;;;;5034044;28;92411;-75
2023/01/17 13:05:44;;;;;;;7.18;1.40;;;7.10;99.90;;;;;;5034849;28;93180;-75
2023/01/17 13:08:18;;;;;;;2.30;1.00;;;7.10;99.90;;;;;;5035132;28;92831;-74
2023/01/17 13:10:50;;;;;;;4.07;1.20;;;7.10;99.90;;;;;;5033391;28;92968;-74
2023/01/17 13:13:26;;;;;;;2.65;1.60;;;7.10;99.90;;;;;;5036470;27;91637;-75
2023/01/17 13:16:15;;;;;;;4.70;1.20;;;7.10;99.90;;;;;;5038193;28;93284;-75
2023/01/17 13:18:45;;;;;;;2.50;1.05;;;7.20;99.90;;;;;;5038259;28;93087;-75
2023/01/17 13:21:28;;;;;;;3.05;1.05;;;7.30;99.90;;;;;;5035736;28;94812;-75
2023/01/17 13:23:55;;;;;;;7.68;1.55;;;7.40;99.90;;;;;;5038387;28;92417;-75
2023/01/17 13:27:00;;;;;;;2.72;1.45;;;7.60;99.90;;;;;;5036779;28;96958;-75
2023/01/17 13:29:35;;;;;;;2.33;1.30;;;7.70;99.90;;;;;;5037848;28;92963;-75
2023/01/17 13:32:24;;;;;;;5.80;1.60;;;7.80;99.90;;;;;;5038201;27;92416;-75
2023/01/17 13:34:53;;;;;;;4.13;1.50;;;8.00;99.90;;;;;;5036904;28;92499;-75
2023/01/17 13:37:45;;;;;;;4.22;1.42;;;8.00;99.90;;;;;;5036423;28;93371;-75
2023/01/17 13:40:33;;;;;;;5.00;1.42;;;8.10;99.90;;;;;;5038510;28;92990;-75
2023/01/17 13:43:01;;;;;;;4.13;1.30;;;8.30;99.90;;;;;;5038085;28;92530;-75
2023/01/17 13:45:32;;;;;;;4.65;1.48;;;8.30;99.90;;;;;;5037899;27;92445;-75
2023/01/17 13:48:11;;;;;;;3.08;1.10;;;8.40;99.90;;;;;;5035208;28;97886;-74
2023/01/17 13:50:55;;;;;;;1.58;1.10;;;8.40;99.90;;;;;;5036297;28;95386;-75
2023/01/17 13:53:42;;;;;;;;;;;8.30;99.90;;;;;;5036920;28;92494;-74
2023/01/17 13:56:13;;;;;;;1.90;1.10;;;8.00;99.90;;;;;;5037660;28;93062;-74
2023/01/17 13:58:57;;;;;;;6.82;1.20;;;7.90;99.90;;;;;;5037025;28;94483;-74
2023/01/17 14:01:24;;;;;;;4.45;1.00;;;7.80;99.90;;;;;;5037796;28;93314;-74
2023/01/17 14:03:51;;;;;;;4.72;1.25;;;7.70;99.90;;;;;;5019384;28;92419;-75
2023/01/17 14:06:36;;;;;;;1.90;1.58;;;7.70;99.90;;;;;;5036936;28;91786;-74
2023/01/17 14:09:22;;;;;;;6.63;1.92;;;7.60;99.90;;;;;;5036082;28;93358;-74
2023/01/17 14:11:55;;;;;;;8.25;1.65;;;7.50;99.90;;;;;;5018945;28;94288;-74
2023/01/17 14:14:38;;;;;;;3.13;1.00;;;7.40;99.90;;;;;;5036464;28;94914;-74
2023/01/17 14:17:27;;;;;;;2.70;1.10;;;7.30;99.90;;;;;;5019229;28;92443;-74
2023/01/17 14:20:17;;;;;;;4.82;1.40;;;7.10;99.90;;;;;;5036018;28;93347;-74
2023/01/17 14:23:04;;;;;;;4.35;2.03;;;7.00;99.90;;;;;;5036915;27;93226;-74
2023/01/17 14:25:39;;;;;;;4.00;1.15;;;6.80;99.90;;;;;;5036611;27;92342;-74
2023/01/17 14:28:21;;;;;;;1.70;0.95;;;6.70;99.90;;;;;;5019202;28;92862;-74
2023/01/17 14:30:53;;;;;;;2.47;0.98;;;6.70;99.90;;;;;;5037166;28;92441;-74
2023/01/17 14:33:29;;;;;;;2.53;1.00;;;6.50;99.90;;;;;;5035544;28;91847;-74
2023/01/17 14:36:02;;;;;;;1.58;0.75;;;6.50;99.90;;;;;;5035458;28;92579;-74
2023/01/17 14:38:31;;;;;;;2.13;1.00;;;6.40;99.90;;;;;;5035843;28;92746;-74
2023/01/17 14:41:08;;;;;;;4.72;1.15;;;6.40;99.90;;;;;;5035186;28;95957;-74
2023/01/17 14:43:40;;;;;;;2.67;1.00;;;6.40;99.90;;;;;;5036992;28;95401;-74
2023/01/17 14:46:25;;;;;;;1.27;0.85;;;6.30;99.90;;;;;;5035835;28;92563;-74
2023/01/17 14:49:02;;;;;;;1.45;0.52;;;6.30;99.90;;;;;;5035665;28;92695;-73
2023/01/17 14:51:33;;;;;;;2.67;0.70;;;6.20;99.90;;;;;;5036801;28;93361;-74
2023/01/17 14:54:05;;;;;;;2.45;0.80;;;6.20;99.90;;;;;;5035628;28;93268;-74